sensor_id;sensor_type;location;lat;lon;timestamp;P1;durP1;ratioP1;P2;durP2;ratioP2
37131;SDS011;23035;50.032;21.978;2023-11-18T00:05:06;12.00;;;6.60;;
37131;SDS011;23035;50.032;21.978;2023-11-18T00:10:11;8.77;;;5.72;;
37131;SDS011;23035;50.032;21.978;2023-11-18T00:15:17;11.18;;;6.95;;
37131;SDS011;23035;50.032;21.978;2023-11-18T00:20:22;12.35;;;7.60;;
37131;SDS011;23035;50.032;21.978;2023-11-18T00:25:27;10.90;;;7.90;;
37131;SDS011;23035;50.032;21.978;2023-11-18T00:30:34;12.27;;;8.40;;
37131;SDS011;23035;50.032;21.978;2023-11-18T00:35:39;10.52;;;6.18;;
37131;SDS011;23035;50.032;21.978;2023-11-18T00:40:43;16.63;;;8.93;;
37131;SDS011;23035;50.032;21.978;2023-11-18T00:45:49;11.07;;;8.32;;
37131;SDS011;23035;50.032;21.978;2023-11-18T00:50:55;15.32;;;8.10;;
37131;SDS011;23035;50.032;21.978;2023-11-18T00:56:00;10.73;;;8.13;;
37131;SDS011;23035;50.032;21.978;2023-11-18T01:01:07;12.05;;;8.70;;
37131;SDS011;23035;50.032;21.978;2023-11-18T01:06:12;12.45;;;9.13;;
37131;SDS011;23035;50.032;21.978;2023-11-18T01:11:18;11.63;;;8.95;;
37131;SDS011;23035;50.032;21.978;2023-11-18T01:16:24;14.75;;;9.75;;
37131;SDS011;23035;50.032;21.978;2023-11-18T01:21:31;12.85;;;8.80;;
37131;SDS011;23035;50.032;21.978;2023-11-18T01:26:36;15.18;;;9.60;;
37131;SDS011;23035;50.032;21.978;2023-11-18T01:31:42;13.27;;;9.65;;
37131;SDS011;23035;50.032;21.978;2023-11-18T01:36:54;13.63;;;9.88;;
37131;SDS011;23035;50.032;21.978;2023-11-18T01:41:59;11.02;;;8.48;;
37131;SDS011;23035;50.032;21.978;2023-11-18T01:47:08;15.30;;;10.27;;
37131;SDS011;23035;50.032;21.978;2023-11-18T01:52:15;15.38;;;13.77;;
37131;SDS011;23035;50.032;21.978;2023-11-18T01:57:19;12.85;;;8.40;;
37131;SDS011;23035;50.032;21.978;2023-11-18T02:02:26;11.95;;;8.35;;
37131;SDS011;23035;50.032;21.978;2023-11-18T02:07:30;14.38;;;8.73;;
37131;SDS011;23035;50.032;21.978;2023-11-18T02:12:38;12.85;;;8.48;;
37131;SDS011;23035;50.032;21.978;2023-11-18T02:22:59;13.15;;;8.48;;
37131;SDS011;23035;50.032;21.978;2023-11-18T02:28:06;15.18;;;10.00;;
37131;SDS011;23035;50.032;21.978;2023-11-18T02:33:14;13.63;;;7.78;;
37131;SDS011;23035;50.032;21.978;2023-11-18T02:38:23;13.30;;;9.75;;
37131;SDS011;23035;50.032;21.978;2023-11-18T02:43:35;12.13;;;8.57;;
37131;SDS011;23035;50.032;21.978;2023-11-18T02:48:42;19.50;;;13.95;;
37131;SDS011;23035;50.032;21.978;2023-11-18T02:53:47;18.88;;;11.48;;
37131;SDS011;23035;50.032;21.978;2023-11-18T02:58:53;16.67;;;13.13;;
37131;SDS011;23035;50.032;21.978;2023-11-18T03:03:57;18.95;;;13.18;;
37131;SDS011;23035;50.032;21.978;2023-11-18T03:09:02;17.87;;;11.97;;
37131;SDS011;23035;50.032;21.978;2023-11-18T03:14:11;18.98;;;11.80;;
37131;SDS011;23035;50.032;21.978;2023-11-18T03:19:16;18.13;;;10.90;;
37131;SDS011;23035;50.032;21.978;2023-11-18T03:24:21;18.23;;;11.63;;
37131;SDS011;23035;50.032;21.978;2023-11-18T03:29:27;14.77;;;10.52;;
37131;SDS011;23035;50.032;21.978;2023-11-18T03:34:32;16.52;;;12.02;;
37131;SDS011;23035;50.032;21.978;2023-11-18T03:39:36;18.10;;;12.93;;
37131;SDS011;23035;50.032;21.978;2023-11-18T03:44:42;15.00;;;11.30;;
37131;SDS011;23035;50.032;21.978;2023-11-18T03:49:50;17.02;;;12.30;;
37131;SDS011;23035;50.032;21.978;2023-11-18T03:54:54;16.38;;;11.88;;
37131;SDS011;23035;50.032;21.978;2023-11-18T04:00:00;14.63;;;10.48;;
37131;SDS011;23035;50.032;21.978;2023-11-18T04:05:11;19.13;;;12.98;;
37131;SDS011;23035;50.032;21.978;2023-11-18T04:10:16;17.23;;;11.67;;
37131;SDS011;23035;50.032;21.978;2023-11-18T04:20:29;23.38;;;12.40;;
37131;SDS011;23035;50.032;21.978;2023-11-18T04:25:33;16.83;;;10.32;;
37131;SDS011;23035;50.032;21.978;2023-11-18T04:30:39;19.08;;;11.75;;
37131;SDS011;23035;50.032;21.978;2023-11-18T04:35:45;17.33;;;11.57;;
37131;SDS011;23035;50.032;21.978;2023-11-18T04:40:50;18.15;;;11.80;;
37131;SDS011;23035;50.032;21.978;2023-11-18T04:45:56;21.08;;;12.48;;
37131;SDS011;23035;50.032;21.978;2023-11-18T04:51:01;21.42;;;13.38;;
37131;SDS011;23035;50.032;21.978;2023-11-18T04:56:05;19.38;;;11.15;;
37131;SDS011;23035;50.032;21.978;2023-11-18T05:01:14;18.40;;;10.95;;
37131;SDS011;23035;50.032;21.978;2023-11-18T05:06:18;17.25;;;11.02;;
37131;SDS011;23035;50.032;21.978;2023-11-18T05:11:23;18.80;;;11.50;;
37131;SDS011;23035;50.032;21.978;2023-11-18T05:16:29;18.75;;;10.55;;
37131;SDS011;23035;50.032;21.978;2023-11-18T05:21:33;16.70;;;11.15;;
37131;SDS011;23035;50.032;21.978;2023-11-18T05:26:37;17.00;;;10.27;;
37131;SDS011;23035;50.032;21.978;2023-11-18T05:31:44;15.85;;;10.23;;
37131;SDS011;23035;50.032;21.978;2023-11-18T05:36:49;15.00;;;9.98;;
37131;SDS011;23035;50.032;21.978;2023-11-18T05:41:56;11.75;;;6.75;;
37131;SDS011;23035;50.032;21.978;2023-11-18T05:47:02;9.48;;;4.97;;
37131;SDS011;23035;50.032;21.978;2023-11-18T05:52:06;10.68;;;7.82;;
37131;SDS011;23035;50.032;21.978;2023-11-18T05:57:10;9.43;;;6.78;;
37131;SDS011;23035;50.032;21.978;2023-11-18T06:02:16;12.77;;;7.65;;
37131;SDS011;23035;50.032;21.978;2023-11-18T06:07:21;12.55;;;6.82;;
37131;SDS011;23035;50.032;21.978;2023-11-18T06:12:26;11.85;;;7.30;;
37131;SDS011;23035;50.032;21.978;2023-11-18T06:17:31;12.45;;;8.25;;
37131;SDS011;23035;50.032;21.978;2023-11-18T06:22:36;11.68;;;7.60;;
37131;SDS011;23035;50.032;21.978;2023-11-18T06:27:40;10.25;;;7.43;;
37131;SDS011;23035;50.032;21.978;2023-11-18T06:32:49;11.48;;;7.72;;
37131;SDS011;23035;50.032;21.978;2023-11-18T06:37:54;13.30;;;7.88;;
37131;SDS011;23035;50.032;21.978;2023-11-18T06:42:59;14.40;;;8.20;;
37131;SDS011;23035;50.032;21.978;2023-11-18T06:48:07;12.63;;;8.40;;
37131;SDS011;23035;50.032;21.978;2023-11-18T06:53:12;12.00;;;7.13;;
37131;SDS011;23035;50.032;21.978;2023-11-18T07:03:23;15.68;;;7.72;;
37131;SDS011;23035;50.032;21.978;2023-11-18T07:08:27;13.95;;;8.07;;
37131;SDS011;23035;50.032;21.978;2023-11-18T07:13:32;15.10;;;8.30;;
37131;SDS011;23035;50.032;21.978;2023-11-18T07:18:42;18.60;;;9.68;;
37131;SDS011;23035;50.032;21.978;2023-11-18T07:23:49;16.15;;;8.27;;
37131;SDS011;23035;50.032;21.978;2023-11-18T07:28:54;14.13;;;8.13;;
37131;SDS011;23035;50.032;21.978;2023-11-18T07:34:00;14.07;;;8.77;;
37131;SDS011;23035;50.032;21.978;2023-11-18T07:44:18;14.50;;;8.60;;
37131;SDS011;23035;50.032;21.978;2023-11-18T07:49:26;14.05;;;8.63;;
37131;SDS011;23035;50.032;21.978;2023-11-18T07:54:30;12.02;;;7.57;;
37131;SDS011;23035;50.032;21.978;2023-11-18T07:59:35;14.10;;;9.70;;
37131;SDS011;23035;50.032;21.978;2023-11-18T08:04:41;13.35;;;8.23;;
37131;SDS011;23035;50.032;21.978;2023-11-18T08:09:46;18.38;;;10.45;;
37131;SDS011;23035;50.032;21.978;2023-11-18T08:14:50;18.25;;;11.18;;
37131;SDS011;23035;50.032;21.978;2023-11-18T08:19:56;17.55;;;11.05;;
37131;SDS011;23035;50.032;21.978;2023-11-18T08:25:00;16.73;;;10.73;;
37131;SDS011;23035;50.032;21.978;2023-11-18T08:30:11;20.05;;;11.05;;
37131;SDS011;23035;50.032;21.978;2023-11-18T08:35:17;16.55;;;9.30;;
37131;SDS011;23035;50.032;21.978;2023-11-18T08:40:24;14.88;;;8.75;;
37131;SDS011;23035;50.032;21.978;2023-11-18T08:45:29;13.17;;;8.80;;
37131;SDS011;23035;50.032;21.978;2023-11-18T08:50:37;15.35;;;9.43;;
37131;SDS011;23035;50.032;21.978;2023-11-18T08:55:43;19.75;;;10.20;;
37131;SDS011;23035;50.032;21.978;2023-11-18T09:00:54;18.15;;;9.73;;
37131;SDS011;23035;50.032;21.978;2023-11-18T09:06:10;14.60;;;9.50;;
37131;SDS011;23035;50.032;21.978;2023-11-18T09:11:22;16.65;;;10.43;;
37131;SDS011;23035;50.032;21.978;2023-11-18T09:16:30;16.08;;;10.38;;
37131;SDS011;23035;50.032;21.978;2023-11-18T09:21:39;17.75;;;10.02;;
37131;SDS011;23035;50.032;21.978;2023-11-18T09:26:46;14.98;;;8.60;;
37131;SDS011;23035;50.032;21.978;2023-11-18T09:31:52;14.32;;;8.43;;
37131;SDS011;23035;50.032;21.978;2023-11-18T09:36:58;14.60;;;7.57;;
37131;SDS011;23035;50.032;21.978;2023-11-18T09:42:04;12.30;;;7.63;;
37131;SDS011;23035;50.032;21.978;2023-11-18T09:47:11;21.35;;;9.27;;
37131;SDS011;23035;50.032;21.978;2023-11-18T09:52:20;12.13;;;7.90;;
37131;SDS011;23035;50.032;21.978;2023-11-18T09:57:31;13.32;;;8.18;;
37131;SDS011;23035;50.032;21.978;2023-11-18T10:02:43;14.65;;;8.80;;
37131;SDS011;23035;50.032;21.978;2023-11-18T10:07:51;14.48;;;8.68;;
37131;SDS011;23035;50.032;21.978;2023-11-18T10:18:02;17.80;;;9.18;;
37131;SDS011;23035;50.032;21.978;2023-11-18T10:23:12;17.92;;;7.78;;
37131;SDS011;23035;50.032;21.978;2023-11-18T10:28:22;13.68;;;8.43;;
37131;SDS011;23035;50.032;21.978;2023-11-18T10:33:30;12.80;;;6.88;;
37131;SDS011;23035;50.032;21.978;2023-11-18T10:38:39;12.18;;;6.95;;
37131;SDS011;23035;50.032;21.978;2023-11-18T10:43:46;10.55;;;6.72;;
37131;SDS011;23035;50.032;21.978;2023-11-18T10:48:51;11.82;;;7.82;;
37131;SDS011;23035;50.032;21.978;2023-11-18T10:53:58;96.68;;;10.68;;
37131;SDS011;23035;50.032;21.978;2023-11-18T10:59:07;8.02;;;5.47;;
37131;SDS011;23035;50.032;21.978;2023-11-18T11:04:12;9.43;;;6.33;;
37131;SDS011;23035;50.032;21.978;2023-11-18T11:09:21;12.55;;;7.22;;
37131;SDS011;23035;50.032;21.978;2023-11-18T11:14:32;14.77;;;8.68;;
37131;SDS011;23035;50.032;21.978;2023-11-18T11:19:42;11.57;;;8.45;;
37131;SDS011;23035;50.032;21.978;2023-11-18T11:25:02;9.68;;;7.97;;
37131;SDS011;23035;50.032;21.978;2023-11-18T11:30:16;12.23;;;9.05;;
37131;SDS011;23035;50.032;21.978;2023-11-18T11:35:30;11.13;;;8.13;;
37131;SDS011;23035;50.032;21.978;2023-11-18T11:40:39;12.60;;;10.00;;
37131;SDS011;23035;50.032;21.978;2023-11-18T11:45:45;11.27;;;10.07;;
37131;SDS011;23035;50.032;21.978;2023-11-18T11:56:19;8.63;;;7.65;;
37131;SDS011;23035;50.032;21.978;2023-11-18T12:01:28;9.20;;;5.88;;
37131;SDS011;23035;50.032;21.978;2023-11-18T12:06:41;9.43;;;5.97;;
37131;SDS011;23035;50.032;21.978;2023-11-18T12:11:48;10.63;;;6.70;;
37131;SDS011;23035;50.032;21.978;2023-11-18T12:17:12;9.25;;;6.43;;
37131;SDS011;23035;50.032;21.978;2023-11-18T12:22:17;10.13;;;7.50;;
37131;SDS011;23035;50.032;21.978;2023-11-18T12:27:44;18.23;;;6.90;;
37131;SDS011;23035;50.032;21.978;2023-11-18T12:32:58;8.82;;;5.75;;
37131;SDS011;23035;50.032;21.978;2023-11-18T12:38:13;12.35;;;6.45;;
37131;SDS011;23035;50.032;21.978;2023-11-18T12:43:45;11.80;;;6.15;;
37131;SDS011;23035;50.032;21.978;2023-11-18T12:48:53;9.98;;;6.80;;
37131;SDS011;23035;50.032;21.978;2023-11-18T12:54:02;12.88;;;7.38;;
37131;SDS011;23035;50.032;21.978;2023-11-18T12:59:11;15.43;;;7.13;;
37131;SDS011;23035;50.032;21.978;2023-11-18T13:04:26;17.45;;;7.35;;
37131;SDS011;23035;50.032;21.978;2023-11-18T13:09:31;10.83;;;6.90;;
37131;SDS011;23035;50.032;21.978;2023-11-18T13:14:40;10.93;;;6.22;;
37131;SDS011;23035;50.032;21.978;2023-11-18T13:19:45;14.25;;;9.35;;
37131;SDS011;23035;50.032;21.978;2023-11-18T13:24:55;12.73;;;8.82;;
37131;SDS011;23035;50.032;21.978;2023-11-18T13:30:07;15.88;;;9.27;;
37131;SDS011;23035;50.032;21.978;2023-11-18T13:35:16;10.95;;;7.97;;
37131;SDS011;23035;50.032;21.978;2023-11-18T13:40:22;12.30;;;9.13;;
37131;SDS011;23035;50.032;21.978;2023-11-18T13:45:30;12.02;;;8.38;;
37131;SDS011;23035;50.032;21.978;2023-11-18T13:50:41;15.18;;;9.32;;
37131;SDS011;23035;50.032;21.978;2023-11-18T13:55:49;13.07;;;9.60;;
37131;SDS011;23035;50.032;21.978;2023-11-18T14:00:56;18.38;;;10.95;;
37131;SDS011;23035;50.032;21.978;2023-11-18T14:06:01;15.63;;;9.50;;
37131;SDS011;23035;50.032;21.978;2023-11-18T14:11:06;20.13;;;12.27;;
37131;SDS011;23035;50.032;21.978;2023-11-18T14:16:20;20.55;;;11.02;;
37131;SDS011;23035;50.032;21.978;2023-11-18T14:21:26;16.48;;;9.57;;
37131;SDS011;23035;50.032;21.978;2023-11-18T14:26:30;20.75;;;11.70;;
37131;SDS011;23035;50.032;21.978;2023-11-18T14:31:37;15.37;;;10.63;;
37131;SDS011;23035;50.032;21.978;2023-11-18T14:36:41;20.73;;;10.40;;
37131;SDS011;23035;50.032;21.978;2023-11-18T14:41:48;27.60;;;13.15;;
37131;SDS011;23035;50.032;21.978;2023-11-18T14:46:58;24.50;;;13.13;;
37131;SDS011;23035;50.032;21.978;2023-11-18T14:52:03;16.85;;;11.57;;
37131;SDS011;23035;50.032;21.978;2023-11-18T14:57:10;20.13;;;11.52;;
37131;SDS011;23035;50.032;21.978;2023-11-18T15:02:18;22.02;;;12.15;;
37131;SDS011;23035;50.032;21.978;2023-11-18T15:07:24;17.50;;;11.70;;
37131;SDS011;23035;50.032;21.978;2023-11-18T15:12:29;21.43;;;12.30;;
37131;SDS011;23035;50.032;21.978;2023-11-18T15:17:35;17.90;;;11.47;;
37131;SDS011;23035;50.032;21.978;2023-11-18T15:22:49;22.00;;;13.10;;
37131;SDS011;23035;50.032;21.978;2023-11-18T15:27:54;17.80;;;12.20;;
37131;SDS011;23035;50.032;21.978;2023-11-18T15:33:01;23.57;;;13.20;;
37131;SDS011;23035;50.032;21.978;2023-11-18T15:38:05;18.52;;;11.52;;
37131;SDS011;23035;50.032;21.978;2023-11-18T15:43:11;18.85;;;13.23;;
37131;SDS011;23035;50.032;21.978;2023-11-18T15:48:17;23.83;;;13.45;;
37131;SDS011;23035;50.032;21.978;2023-11-18T15:53:21;19.50;;;11.77;;
37131;SDS011;23035;50.032;21.978;2023-11-18T16:03:33;18.35;;;11.13;;
37131;SDS011;23035;50.032;21.978;2023-11-18T16:08:38;20.40;;;12.70;;
37131;SDS011;23035;50.032;21.978;2023-11-18T16:13:43;24.27;;;13.40;;
37131;SDS011;23035;50.032;21.978;2023-11-18T16:18:49;24.63;;;15.07;;
37131;SDS011;23035;50.032;21.978;2023-11-18T16:23:57;25.00;;;14.65;;
37131;SDS011;23035;50.032;21.978;2023-11-18T16:29:02;25.42;;;14.80;;
37131;SDS011;23035;50.032;21.978;2023-11-18T16:34:11;23.42;;;13.88;;
37131;SDS011;23035;50.032;21.978;2023-11-18T16:39:15;22.42;;;12.75;;
37131;SDS011;23035;50.032;21.978;2023-11-18T16:44:23;24.30;;;14.18;;
37131;SDS011;23035;50.032;21.978;2023-11-18T16:49:29;28.65;;;15.35;;
37131;SDS011;23035;50.032;21.978;2023-11-18T16:54:33;29.25;;;16.55;;
37131;SDS011;23035;50.032;21.978;2023-11-18T16:59:43;24.50;;;13.85;;
37131;SDS011;23035;50.032;21.978;2023-11-18T17:04:53;25.08;;;13.93;;
37131;SDS011;23035;50.032;21.978;2023-11-18T17:09:58;23.77;;;13.27;;
37131;SDS011;23035;50.032;21.978;2023-11-18T17:15:02;27.83;;;14.15;;
37131;SDS011;23035;50.032;21.978;2023-11-18T17:20:10;22.77;;;12.95;;
37131;SDS011;23035;50.032;21.978;2023-11-18T17:25:15;24.10;;;13.88;;
37131;SDS011;23035;50.032;21.978;2023-11-18T17:30:20;36.97;;;18.58;;
37131;SDS011;23035;50.032;21.978;2023-11-18T17:35:26;26.13;;;14.70;;
37131;SDS011;23035;50.032;21.978;2023-11-18T17:45:38;21.77;;;13.50;;
37131;SDS011;23035;50.032;21.978;2023-11-18T17:50:43;26.88;;;15.68;;
37131;SDS011;23035;50.032;21.978;2023-11-18T17:55:48;17.13;;;11.93;;
37131;SDS011;23035;50.032;21.978;2023-11-18T18:00:53;21.83;;;13.93;;
37131;SDS011;23035;50.032;21.978;2023-11-18T18:05:59;21.48;;;14.88;;
37131;SDS011;23035;50.032;21.978;2023-11-18T18:11:13;22.23;;;14.63;;
37131;SDS011;23035;50.032;21.978;2023-11-18T18:16:18;30.23;;;16.65;;
37131;SDS011;23035;50.032;21.978;2023-11-18T18:21:24;20.30;;;12.23;;
37131;SDS011;23035;50.032;21.978;2023-11-18T18:26:28;25.77;;;15.05;;
37131;SDS011;23035;50.032;21.978;2023-11-18T18:31:35;19.65;;;11.70;;
37131;SDS011;23035;50.032;21.978;2023-11-18T18:41:47;20.98;;;11.98;;
37131;SDS011;23035;50.032;21.978;2023-11-18T18:46:52;24.95;;;13.75;;
37131;SDS011;23035;50.032;21.978;2023-11-18T18:51:59;18.15;;;10.50;;
37131;SDS011;23035;50.032;21.978;2023-11-18T18:57:03;17.98;;;11.80;;
37131;SDS011;23035;50.032;21.978;2023-11-18T19:02:10;16.33;;;9.50;;
37131;SDS011;23035;50.032;21.978;2023-11-18T19:07:17;15.25;;;9.02;;
37131;SDS011;23035;50.032;21.978;2023-11-18T19:12:24;18.55;;;12.10;;
37131;SDS011;23035;50.032;21.978;2023-11-18T19:22:35;21.38;;;12.55;;
37131;SDS011;23035;50.032;21.978;2023-11-18T19:27:40;21.75;;;12.98;;
37131;SDS011;23035;50.032;21.978;2023-11-18T19:32:46;18.15;;;11.13;;
37131;SDS011;23035;50.032;21.978;2023-11-18T19:37:52;29.50;;;16.07;;
37131;SDS011;23035;50.032;21.978;2023-11-18T19:42:57;18.48;;;11.75;;
37131;SDS011;23035;50.032;21.978;2023-11-18T19:48:03;21.02;;;12.80;;
37131;SDS011;23035;50.032;21.978;2023-11-18T19:53:10;18.15;;;11.43;;
37131;SDS011;23035;50.032;21.978;2023-11-18T19:58:15;18.45;;;11.25;;
37131;SDS011;23035;50.032;21.978;2023-11-18T20:03:19;15.13;;;9.57;;
37131;SDS011;23035;50.032;21.978;2023-11-18T20:18:36;15.55;;;10.25;;
37131;SDS011;23035;50.032;21.978;2023-11-18T20:23:42;20.75;;;12.30;;
37131;SDS011;23035;50.032;21.978;2023-11-18T20:28:51;17.48;;;10.95;;
37131;SDS011;23035;50.032;21.978;2023-11-18T20:33:58;21.48;;;13.45;;
37131;SDS011;23035;50.032;21.978;2023-11-18T20:39:05;20.15;;;11.48;;
37131;SDS011;23035;50.032;21.978;2023-11-18T20:44:09;14.40;;;8.95;;
37131;SDS011;23035;50.032;21.978;2023-11-18T20:49:15;20.52;;;10.75;;
37131;SDS011;23035;50.032;21.978;2023-11-18T20:59:26;19.17;;;12.10;;
37131;SDS011;23035;50.032;21.978;2023-11-18T21:04:31;18.92;;;10.70;;
37131;SDS011;23035;50.032;21.978;2023-11-18T21:09:37;19.33;;;12.00;;
37131;SDS011;23035;50.032;21.978;2023-11-18T21:14:43;17.55;;;10.68;;
37131;SDS011;23035;50.032;21.978;2023-11-18T21:19:51;20.90;;;11.93;;
37131;SDS011;23035;50.032;21.978;2023-11-18T21:24:57;16.38;;;10.90;;
37131;SDS011;23035;50.032;21.978;2023-11-18T21:30:04;16.52;;;10.80;;
37131;SDS011;23035;50.032;21.978;2023-11-18T21:35:14;22.50;;;13.00;;
37131;SDS011;23035;50.032;21.978;2023-11-18T21:40:24;21.30;;;12.25;;
37131;SDS011;23035;50.032;21.978;2023-11-18T21:45:32;18.92;;;12.23;;
37131;SDS011;23035;50.032;21.978;2023-11-18T21:50:36;21.13;;;13.13;;
37131;SDS011;23035;50.032;21.978;2023-11-18T21:55:42;19.57;;;11.20;;
37131;SDS011;23035;50.032;21.978;2023-11-18T22:00:47;21.63;;;12.68;;
37131;SDS011;23035;50.032;21.978;2023-11-18T22:05:51;37.33;;;17.45;;
37131;SDS011;23035;50.032;21.978;2023-11-18T22:10:59;32.57;;;18.87;;
37131;SDS011;23035;50.032;21.978;2023-11-18T22:16:04;32.35;;;17.52;;
37131;SDS011;23035;50.032;21.978;2023-11-18T22:21:11;18.80;;;11.55;;
37131;SDS011;23035;50.032;21.978;2023-11-18T22:26:20;18.08;;;11.20;;
37131;SDS011;23035;50.032;21.978;2023-11-18T22:31:25;18.58;;;11.80;;
37131;SDS011;23035;50.032;21.978;2023-11-18T22:36:32;17.13;;;10.50;;
37131;SDS011;23035;50.032;21.978;2023-11-18T22:41:41;35.90;;;18.40;;
37131;SDS011;23035;50.032;21.978;2023-11-18T22:46:46;51.72;;;26.23;;
37131;SDS011;23035;50.032;21.978;2023-11-18T22:51:51;22.45;;;12.68;;
37131;SDS011;23035;50.032;21.978;2023-11-18T22:56:58;17.20;;;10.73;;
37131;SDS011;23035;50.032;21.978;2023-11-18T23:07:07;22.02;;;13.05;;
37131;SDS011;23035;50.032;21.978;2023-11-18T23:12:13;27.45;;;15.77;;
37131;SDS011;23035;50.032;21.978;2023-11-18T23:22:26;22.00;;;12.73;;
37131;SDS011;23035;50.032;21.978;2023-11-18T23:27:33;18.08;;;11.52;;
37131;SDS011;23035;50.032;21.978;2023-11-18T23:32:39;19.60;;;11.60;;
37131;SDS011;23035;50.032;21.978;2023-11-18T23:37:45;17.08;;;10.68;;
37131;SDS011;23035;50.032;21.978;2023-11-18T23:42:51;17.88;;;10.35;;
37131;SDS011;23035;50.032;21.978;2023-11-18T23:47:56;16.25;;;10.13;;
37131;SDS011;23035;50.032;21.978;2023-11-18T23:53:00;19.83;;;10.23;;
37131;SDS011;23035;50.032;21.978;2023-11-18T23:58:06;19.85;;;11.00;;
